Time;durP1;ratioP1;P1;durP2;ratioP2;P2;SDS_P1;SDS_P2;PMS_P1;PMS_P2;Temp;Humidity;BMP_temperature;BMP_pressure;BME280_temperature;BME280_humidity;BME280_pressure;Samples;Min_cycle;Max_cycle;Signal;HPM_P1;HPM_P2
2024/03/13 00:00:47;;;;;;;;;;;7.80;89.40;;;;;;5057610;28;20012;-59
2024/03/13 00:03:21;;;;;;;;;;;7.80;89.40;;;;;;5058156;28;19956;-60
2024/03/13 00:05:54;;;;;;;;;;;7.80;89.40;;;;;;5050469;28;19931;-60
2024/03/13 00:08:27;;;;;;;;;;;7.80;89.50;;;;;;5055918;28;19938;-60
2024/03/13 00:11:00;;;;;;;;;;;7.80;89.60;;;;;;5058284;28;20012;-60
2024/03/13 00:13:35;;;;;;;;;;;7.80;89.60;;;;;;5057187;28;20374;-60
2024/03/13 00:16:09;;;;;;;;;;;7.80;89.60;;;;;;5056243;28;19932;-60
2024/03/13 00:18:43;;;;;;;;;;;7.80;89.60;;;;;;5056382;28;19956;-60
2024/03/13 00:21:16;;;;;;;;;;;7.80;89.60;;;;;;5054956;28;19943;-59
2024/03/13 00:23:52;;;;;;;;;;;7.80;89.60;;;;;;5057570;28;19935;-60
2024/03/13 00:26:27;;;;;;;;;;;7.80;89.60;;;;;;5057987;28;20272;-60
2024/03/13 00:29:08;;;;;;;;;;;7.80;89.60;;;;;;5058853;28;19925;-60
2024/03/13 00:31:44;;;;;;;;;;;7.80;89.60;;;;;;5054658;28;19971;-58
2024/03/13 00:34:18;;;;;;;;;;;7.70;89.60;;;;;;5058374;28;19971;-58
2024/03/13 00:36:51;;;;;;;;;;;7.70;89.60;;;;;;5057592;28;19929;-59
2024/03/13 00:39:24;;;;;;;;;;;7.80;89.60;;;;;;5058719;28;19960;-59
2024/03/13 00:42:18;;;;;;;;;;;7.70;89.60;;;;;;5061521;28;19924;-57
2024/03/13 00:44:53;;;;;;;;;;;7.70;89.60;;;;;;5058232;28;19987;-58
2024/03/13 00:47:26;;;;;;;;;;;7.80;89.70;;;;;;5061466;28;19936;-59
2024/03/13 00:49:59;;;;;;;;;;;7.70;89.50;;;;;;5061898;28;19925;-58
2024/03/13 00:52:32;;;;;;;;;;;7.70;89.60;;;;;;5060551;28;19931;-57
2024/03/13 00:55:10;;;;;;;;;;;7.70;89.50;;;;;;5061750;28;20019;-58
2024/03/13 00:57:44;;;;;;;;;;;7.70;89.70;;;;;;5061310;28;19940;-58
2024/03/13 01:00:21;;;;;;;;;;;7.70;89.60;;;;;;5061110;28;19933;-58
2024/03/13 01:02:54;;;;;;;;;;;7.70;89.60;;;;;;5062045;28;19978;-59
2024/03/13 01:05:28;;;;;;;;;;;7.70;89.60;;;;;;5062506;28;20347;-58
2024/03/13 01:08:02;;;;;;;;;;;7.70;89.60;;;;;;5062065;28;19973;-56
2024/03/13 01:10:35;;;;;;;;;;;7.70;89.50;;;;;;5063300;28;19978;-58
2024/03/13 01:13:01;;;;;;;;;;;7.70;89.40;;;;;;5062537;28;20386;-58
2024/03/13 01:15:36;;;;;;;;;;;7.70;89.30;;;;;;5062008;28;19939;-58
2024/03/13 01:18:16;;;;;;;;;;;7.60;89.20;;;;;;5062703;28;20341;-56
2024/03/13 01:20:49;;;;;;;;;;;7.60;89.00;;;;;;5061226;28;19936;-58
2024/03/13 01:23:22;;;;;;;;;;;7.50;89.00;;;;;;5059310;28;19964;-59
2024/03/13 01:25:51;;;;;;;;;;;7.50;89.00;;;;;;5062465;28;19932;-58
2024/03/13 01:28:24;;;;;;;;;;;7.50;88.80;;;;;;5061328;28;19935;-59
2024/03/13 01:30:59;;;;;;;;;;;7.50;88.80;;;;;;5063482;28;19959;-59
2024/03/13 01:33:32;;;;;;;;;;;7.50;88.60;;;;;;5059247;28;20014;-59
2024/03/13 01:36:06;;;;;;;;;;;7.40;88.60;;;;;;5062538;28;20028;-59
2024/03/13 01:38:38;;;;;;;;;;;7.40;88.60;;;;;;5062245;28;20366;-58
2024/03/13 01:55:35;;;;;;;;;;;7.30;88.60;;;;;;5057824;28;20016;-63
2024/03/13 01:58:08;;;;;;;;;;;7.30;88.70;;;;;;5059920;28;19928;-63
2024/03/13 02:03:34;;;;;;;;;;;7.30;88.80;;;;;;5057991;28;19928;-65
2024/03/13 02:06:07;;;;;;;;;;;7.30;88.90;;;;;;5058980;28;19975;-63
2024/03/13 02:08:41;;;;;;;;;;;7.30;89.00;;;;;;5058522;28;19943;-65
2024/03/13 02:11:14;;;;;;;;;;;7.30;89.10;;;;;;5059823;28;19940;-63
2024/03/13 02:13:47;;;;;;;;;;;7.30;89.20;;;;;;5058575;28;19928;-64
2024/03/13 02:16:21;;;;;;;;;;;7.30;89.40;;;;;;5058275;28;20585;-64
2024/03/13 02:18:56;;;;;;;;;;;7.30;89.50;;;;;;5058407;28;20302;-62
2024/03/13 02:21:32;;;;;;;;;;;7.30;89.50;;;;;;5057041;28;19929;-62
2024/03/13 02:24:05;;;;;;;;;;;7.30;89.50;;;;;;5057911;28;20397;-62
2024/03/13 02:26:40;;;;;;;;;;;7.30;89.60;;;;;;5055297;28;19967;-63
2024/03/13 02:29:13;;;;;;;;;;;7.30;89.60;;;;;;5057012;28;19924;-64
2024/03/13 02:31:46;;;;;;;;;;;7.30;89.70;;;;;;5057163;28;19931;-62
2024/03/13 02:34:19;;;;;;;;;;;7.30;89.80;;;;;;5056991;28;19925;-65
2024/03/13 02:36:54;;;;;;;;;;;7.30;89.70;;;;;;5057587;28;19939;-64
2024/03/13 02:39:27;;;;;;;;;;;7.30;89.80;;;;;;5057620;28;19935;-62
2024/03/13 02:42:01;;;;;;;;;;;7.30;89.90;;;;;;5059458;28;19925;-64
2024/03/13 02:44:35;;;;;;;;;;;7.30;89.80;;;;;;5057498;28;19978;-65
2024/03/13 02:47:08;;;;;;;;;;;7.40;89.80;;;;;;5058352;28;19932;-65
2024/03/13 02:49:43;;;;;;;;;;;7.30;89.80;;;;;;5057130;28;20315;-64
2024/03/13 02:52:23;;;;;;;;;;;7.40;89.90;;;;;;5058465;28;19967;-63
2024/03/13 02:54:56;;;;;;;;;;;7.40;89.90;;;;;;5058295;28;19928;-64
2024/03/13 02:57:29;;;;;;;;;;;7.40;89.80;;;;;;5055756;28;19939;-63
2024/03/13 03:00:04;;;;;;;;;;;7.40;89.80;;;;;;5056664;28;19939;-62
2024/03/13 03:02:39;;;;;;;;;;;7.40;89.80;;;;;;5056571;28;20337;-62
2024/03/13 03:05:13;;;;;;;;;;;7.40;89.70;;;;;;5056878;28;20291;-62
2024/03/13 03:07:46;;;;;;;;;;;7.40;89.70;;;;;;5058596;28;19925;-62
2024/03/13 03:10:20;;;;;;;;;;;7.40;89.80;;;;;;5057701;28;19931;-61
2024/03/13 03:12:54;;;;;;;;;;;7.40;89.70;;;;;;5054918;28;19932;-63
2024/03/13 03:15:31;;;;;;;;;;;7.40;89.80;;;;;;5058658;28;19929;-62
2024/03/13 03:18:04;;;;;;;;;;;7.40;89.90;;;;;;5064986;28;19924;-62
2024/03/13 03:20:38;;;;;;;;;;;7.40;89.90;;;;;;5057449;28;19993;-62
2024/03/13 03:23:11;;;;;;;;;;;7.40;89.90;;;;;;5059810;28;19970;-63
2024/03/13 03:25:44;;;;;;;;;;;7.40;89.90;;;;;;5059540;28;20011;-62
2024/03/13 03:28:17;;;;;;;;;;;7.40;89.90;;;;;;5057992;28;19935;-63
2024/03/13 03:30:51;;;;;;;;;;;7.40;89.80;;;;;;5057652;28;20004;-64
2024/03/13 03:33:25;;;;;;;;;;;7.40;90.00;;;;;;5058668;28;20022;-63
2024/03/13 03:35:58;;;;;;;;;;;7.40;89.90;;;;;;5065277;28;19951;-63
2024/03/13 03:38:32;;;;;;;;;;;7.40;89.90;;;;;;5059320;28;19956;-63
2024/03/13 03:41:06;;;;;;;;;;;7.40;89.90;;;;;;5058593;28;19963;-63
2024/03/13 03:43:39;;;;;;;;;;;7.40;89.90;;;;;;5058068;28;19932;-63
2024/03/13 03:46:14;;;;;;;;;;;7.40;89.90;;;;;;5059082;28;20021;-63
2024/03/13 03:48:41;;;;;;;;;;;7.40;89.90;;;;;;5057122;28;19964;-64
2024/03/13 03:51:16;;;;;;;;;;;7.40;89.90;;;;;;5058831;28;20054;-63
2024/03/13 03:53:49;;;;;;;;;;;7.40;89.90;;;;;;5058259;28;20023;-61
2024/03/13 03:56:22;;;;;;;;;;;7.40;90.00;;;;;;5058323;28;19924;-63
2024/03/13 03:58:55;;;;;;;;;;;7.40;90.10;;;;;;5058006;28;19924;-62
2024/03/13 04:01:28;;;;;;;;;;;7.40;90.10;;;;;;5057264;28;19933;-62
2024/03/13 04:04:02;;;;;;;;;;;7.40;90.00;;;;;;5058701;28;19932;-62
2024/03/13 04:06:35;;;;;;;;;;;7.40;90.10;;;;;;5057564;28;20019;-62
2024/03/13 04:09:15;;;;;;;;;;;7.40;90.20;;;;;;5059330;28;19925;-63
2024/03/13 04:11:49;;;;;;;;;;;7.40;90.20;;;;;;5058218;28;19928;-63
2024/03/13 04:14:22;;;;;;;;;;;7.40;90.10;;;;;;5057764;28;20433;-64
2024/03/13 04:16:55;;;;;;;;;;;7.40;90.10;;;;;;5057507;28;20479;-63
2024/03/13 04:19:28;;;;;;;;;;;7.40;90.20;;;;;;5057102;28;19958;-61
2024/03/13 04:22:01;;;;;;;;;;;7.30;90.30;;;;;;5055871;28;19925;-61
2024/03/13 04:24:35;;;;;;;;;;;7.40;90.30;;;;;;5058169;28;19925;-63
2024/03/13 04:27:02;;;;;;;;;;;7.40;90.30;;;;;;5058503;28;19930;-62
2024/03/13 04:29:36;;;;;;;;;;;7.40;90.30;;;;;;5057800;28;20019;-62
2024/03/13 04:32:09;;;;;;;;;;;7.40;90.20;;;;;;5058467;28;19993;-62
2024/03/13 04:34:44;;;;;;;;;;;7.40;90.10;;;;;;5056512;28;20510;-62
2024/03/13 04:37:16;;;;;;;;;;;7.30;90.10;;;;;;5057558;28;19928;-62
2024/03/13 04:39:49;;;;;;;;;;;7.40;90.20;;;;;;5053005;28;19975;-63
2024/03/13 04:42:23;;;;;;;;;;;7.40;90.10;;;;;;5057956;28;19925;-63
2024/03/13 04:44:58;;;;;;;;;;;7.50;90.10;;;;;;5057791;28;19930;-63
2024/03/13 04:47:32;;;;;;;;;;;7.40;90.00;;;;;;5057413;28;19931;-63
2024/03/13 04:50:05;;;;;;;;;;;7.40;90.10;;;;;;5056758;28;19924;-62
2024/03/13 04:52:38;;;;;;;;;;;7.40;90.00;;;;;;5056013;28;19928;-62
2024/03/13 04:55:11;;;;;;;;;;;7.40;90.10;;;;;;5057380;28;20371;-62
2024/03/13 04:57:44;;;;;;;;;;;7.40;90.10;;;;;;5057745;28;20005;-63
2024/03/13 05:00:18;;;;;;;;;;;7.40;90.00;;;;;;5059935;28;19932;-64
2024/03/13 05:02:50;;;;;;;;;;;7.40;89.80;;;;;;5057452;28;19968;-63
2024/03/13 05:05:23;;;;;;;;;;;7.40;89.90;;;;;;5056208;28;19924;-63
2024/03/13 05:07:56;;;;;;;;;;;7.40;89.90;;;;;;5058257;28;19932;-62
2024/03/13 05:10:29;;;;;;;;;;;7.40;90.00;;;;;;5057211;28;19928;-62
2024/03/13 05:13:02;;;;;;;;;;;7.40;90.10;;;;;;5057941;28;20383;-70
2024/03/13 05:15:35;;;;;;;;;;;7.40;90.00;;;;;;5057962;28;20356;-71
2024/03/13 05:18:09;;;;;;;;;;;7.40;90.10;;;;;;5058740;28;19989;-71
2024/03/13 05:20:43;;;;;;;;;;;7.40;90.10;;;;;;5040208;28;19929;-70
2024/03/13 05:23:09;;;;;;;;;;;7.40;90.10;;;;;;5057704;28;19951;-71
2024/03/13 05:25:47;;;;;;;;;;;7.40;90.20;;;;;;5054402;28;19924;-70
2024/03/13 05:28:21;;;;;;;;;;;7.40;90.20;;;;;;5058533;28;20367;-67
2024/03/13 05:30:54;;;;;;;;;;;7.40;90.20;;;;;;5061279;28;19932;-71
2024/03/13 05:33:28;;;;;;;;;;;7.40;90.20;;;;;;5059618;28;19924;-70
2024/03/13 05:36:03;;;;;;;;;;;7.40;90.20;;;;;;5060865;28;20015;-71
2024/03/13 05:38:36;;;;;;;;;;;7.40;90.10;;;;;;5060483;28;20268;-71
2024/03/13 05:41:09;;;;;;;;;;;7.40;90.10;;;;;;5057304;28;19924;-71
2024/03/13 05:43:43;;;;;;;;;;;7.40;90.10;;;;;;5060676;28;19964;-69
2024/03/13 05:46:15;;;;;;;;;;;7.40;90.00;;;;;;5060581;28;19955;-70
2024/03/13 05:48:48;;;;;;;;;;;7.40;90.10;;;;;;5061107;28;19925;-71
2024/03/13 05:51:22;;;;;;;;;;;7.40;90.10;;;;;;5061698;28;19976;-69
2024/03/13 05:53:55;;;;;;;;;;;7.40;90.10;;;;;;5061233;28;20411;-71
2024/03/13 05:56:28;;;;;;;;;;;7.40;90.10;;;;;;5060110;28;20614;-68
2024/03/13 05:59:02;;;;;;;;;;;7.40;90.10;;;;;;5061418;28;19948;-70
2024/03/13 06:01:35;;;;;;;;;;;7.40;90.10;;;;;;5059089;28;20279;-70
2024/03/13 06:04:16;;;;;;;;;;;7.50;90.20;;;;;;5060136;28;19933;-72
2024/03/13 06:06:50;;;;;;;;;;;7.50;90.10;;;;;;5061600;28;19936;-71
2024/03/13 06:09:23;;;;;;;;;;;7.50;90.20;;;;;;5060080;28;19990;-70
2024/03/13 06:11:57;;;;;;;;;;;7.50;90.30;;;;;;5059979;28;19925;-71
2024/03/13 06:14:30;;;;;;;;;;;7.50;90.20;;;;;;5060570;28;19989;-70
2024/03/13 06:17:03;;;;;;;;;;;7.60;90.30;;;;;;5060489;28;20356;-70
2024/03/13 06:19:36;;;;;;;;;;;7.60;90.20;;;;;;5058310;28;19925;-69
2024/03/13 06:22:09;;;;;;;;;;;7.60;90.20;;;;;;5057807;28;19924;-62
2024/03/13 06:24:46;;;;;;;;;;;7.70;90.20;;;;;;5057102;28;20580;-63
2024/03/13 06:27:27;;;;;;;;;;;7.70;90.10;;;;;;5060210;28;19990;-63
2024/03/13 06:30:01;;;;;;;;;;;7.70;90.00;;;;;;5061476;28;19958;-62
2024/03/13 06:32:35;;;;;;;;;;;7.70;90.00;;;;;;5057490;28;19935;-63
2024/03/13 06:35:07;;;;;;;;;;;7.80;89.90;;;;;;5058491;28;19947;-64
2024/03/13 06:37:40;;;;;;;;;;;7.80;89.80;;;;;;5059422;28;19928;-64
2024/03/13 06:40:14;;;;;;;;;;;7.80;89.60;;;;;;5059788;28;20044;-63
2024/03/13 06:42:48;;;;;;;;;;;7.90;89.40;;;;;;5058791;28;19962;-64
2024/03/13 06:45:20;;;;;;;;;;;7.90;89.40;;;;;;5066016;28;19932;-63
2024/03/13 06:47:54;;;;;;;;;;;7.90;89.30;;;;;;5059833;28;19932;-63
2024/03/13 06:50:26;;;;;;;;;;;7.90;89.50;;;;;;5057644;28;19972;-63
2024/03/13 06:53:00;;;;;;;;;;;7.80;89.40;;;;;;5059660;28;19929;-64
2024/03/13 06:55:32;;;;;;;;;;;7.90;89.20;;;;;;5063749;28;19932;-63
2024/03/13 06:57:59;;;;;;;;;;;7.90;89.50;;;;;;5065206;28;19994;-63
2024/03/13 07:00:33;;;;;;;;;;;7.90;89.50;;;;;;5058551;28;20025;-64
2024/03/13 07:03:07;;;;;;;;;;;8.00;89.40;;;;;;5059191;28;20007;-62
2024/03/13 07:05:46;;;;;;;;;;;8.00;89.50;;;;;;5058248;28;19928;-64
2024/03/13 07:08:20;;;;;;;;;;;8.10;89.50;;;;;;5059354;28;19937;-62
2024/03/13 07:10:53;;;;;;;;;;;8.10;89.50;;;;;;5058459;28;19924;-63
2024/03/13 07:13:25;;;;;;;;;;;8.20;89.50;;;;;;5057895;28;19924;-63
2024/03/13 07:15:59;;;;;;;;;;;8.20;89.40;;;;;;5058974;28;19975;-63
2024/03/13 07:18:32;;;;;;;;;;;8.20;89.30;;;;;;5059064;28;20287;-64
2024/03/13 07:21:06;;;;;;;;;;;8.30;89.40;;;;;;5058073;28;19989;-63
2024/03/13 07:23:46;;;;;;;;;;;8.40;89.10;;;;;;5058287;28;19929;-64
2024/03/13 07:26:19;;;;;;;;;;;8.40;89.20;;;;;;5057596;28;19924;-64
2024/03/13 07:28:51;;;;;;;;;;;8.40;89.10;;;;;;5057809;28;19978;-63
2024/03/13 07:31:26;;;;;;;;;;;8.40;89.10;;;;;;5057387;28;20375;-70
2024/03/13 07:34:00;;;;;;;;;;;8.40;89.10;;;;;;5059783;28;19932;-69
2024/03/13 07:36:33;;;;;;;;;;;8.50;89.00;;;;;;5044179;28;19989;-70
2024/03/13 07:39:10;;;;;;;;;;;8.50;88.80;;;;;;5059081;28;19982;-68
2024/03/13 07:41:44;;;;;;;;;;;8.60;88.80;;;;;;5057529;28;20039;-69
2024/03/13 07:44:17;;;;;;;;;;;8.70;88.80;;;;;;5059694;28;19981;-70
2024/03/13 07:46:57;;;;;;;;;;;8.70;88.80;;;;;;5059033;28;19968;-71
2024/03/13 07:49:32;;;;;;;;;;;8.70;88.70;;;;;;5057307;28;20011;-71
2024/03/13 07:52:06;;;;;;;;;;;8.80;88.60;;;;;;5059724;28;20314;-70
2024/03/13 07:54:39;;;;;;;;;;;8.80;88.60;;;;;;5050094;28;20347;-70
2024/03/13 07:57:13;;;;;;;;;;;8.80;88.60;;;;;;5058289;28;19925;-69
2024/03/13 07:59:40;;;;;;;;;;;8.90;88.50;;;;;;5058651;28;19925;-70
2024/03/13 08:02:15;;;;;;;;;;;8.90;88.50;;;;;;5059126;28;19940;-70
2024/03/13 08:04:49;;;;;;;;;;;8.90;88.30;;;;;;5057173;28;20045;-70
2024/03/13 08:07:25;;;;;;;;;;;9.00;88.30;;;;;;5064049;28;19925;-68
2024/03/13 08:09:59;;;;;;;;;;;9.00;88.20;;;;;;5058978;28;19928;-69
2024/03/13 08:12:38;;;;;;;;;;;9.10;88.10;;;;;;5059012;28;19929;-69
2024/03/13 08:15:12;;;;;;;;;;;9.20;88.10;;;;;;5058714;28;20006;-71
2024/03/13 08:17:38;;;;;;;;;;;9.20;87.90;;;;;;5057431;28;20031;-70
2024/03/13 08:20:12;;;;;;;;;;;9.20;87.90;;;;;;5057742;28;19928;-71
2024/03/13 08:22:46;;;;;;;;;;;9.30;87.90;;;;;;5058969;28;19924;-70
2024/03/13 08:25:19;;;;;;;;;;;9.30;87.80;;;;;;5064526;28;20015;-72
2024/03/13 08:27:53;;;;;;;;;;;9.30;87.70;;;;;;5057112;28;19924;-69
2024/03/13 08:30:27;;;;;;;;;;;9.40;87.60;;;;;;5057277;28;19975;-71
2024/03/13 08:33:01;;;;;;;;;;;9.40;87.40;;;;;;5057850;28;20013;-71
2024/03/13 08:35:34;;;;;;;;;;;9.40;87.20;;;;;;5056623;28;19933;-71
2024/03/13 08:38:07;;;;;;;;;;;9.40;87.10;;;;;;5057888;28;19929;-70
2024/03/13 08:40:40;;;;;;;;;;;9.50;87.00;;;;;;5057673;28;19956;-63
2024/03/13 08:43:18;;;;;;;;;;;9.50;86.90;;;;;;5055933;28;19964;-60
2024/03/13 08:45:52;;;;;;;;;;;9.50;86.70;;;;;;5058190;28;19933;-60
2024/03/13 08:48:27;;;;;;;;;;;9.60;86.50;;;;;;5063045;28;19924;-60
2024/03/13 08:51:03;;;;;;;;;;;9.60;86.50;;;;;;5058685;28;19929;-60
2024/03/13 08:53:42;;;;;;;;;;;9.60;86.40;;;;;;5056129;28;20324;-59
2024/03/13 08:56:16;;;;;;;;;;;9.60;86.30;;;;;;5055842;28;20463;-61
2024/03/13 08:58:49;;;;;;;;;;;9.70;86.20;;;;;;5057016;28;20026;-60
2024/03/13 09:01:23;;;;;;;;;;;9.70;86.20;;;;;;5057036;28;19932;-60
2024/03/13 09:03:56;;;;;;;;;;;9.70;86.10;;;;;;5044630;28;19925;-60
2024/03/13 09:06:30;;;;;;;;;;;9.80;86.00;;;;;;5060476;28;19925;-60
2024/03/13 09:09:04;;;;;;;;;;;9.90;85.90;;;;;;5060877;28;19933;-59
2024/03/13 09:11:37;;;;;;;;;;;9.90;85.90;;;;;;5062045;28;20029;-61
2024/03/13 09:14:10;;;;;;;;;;;9.90;85.90;;;;;;5062263;28;20344;-60
2024/03/13 09:16:43;;;;;;;;;;;10.00;85.70;;;;;;5060788;28;19936;-60
2024/03/13 09:19:16;;;;;;;;;;;9.90;85.60;;;;;;5060677;28;20313;-60
2024/03/13 09:22:18;;;;;;;;;;;10.00;85.40;;;;;;5060232;28;19936;-61
2024/03/13 09:24:52;;;;;;;;;;;10.00;85.20;;;;;;5062779;28;19951;-60
2024/03/13 09:27:25;;;;;;;;;;;10.00;85.10;;;;;;5060755;28;19928;-59
2024/03/13 09:29:58;;;;;;;;;;;10.10;85.10;;;;;;5059192;28;19935;-61
2024/03/13 09:32:31;;;;;;;;;;;10.10;85.10;;;;;;5061357;28;19929;-59
2024/03/13 09:35:04;;;;;;;;;;;10.20;85.10;;;;;;5060440;28;20028;-60
2024/03/13 09:37:38;;;;;;;;;;;10.20;85.10;;;;;;5061259;28;19967;-60
2024/03/13 09:40:12;;;;;;;;;;;10.30;84.90;;;;;;5060220;28;19932;-60
2024/03/13 09:42:39;;;;;;;;;;;10.30;84.60;;;;;;5061263;28;19924;-60
2024/03/13 09:45:13;;;;;;;;;;;10.40;84.50;;;;;;5059269;28;20405;-59
2024/03/13 09:47:47;;;;;;;;;;;10.40;84.50;;;;;;5060947;28;20322;-60
2024/03/13 09:50:20;;;;;;;;;;;10.40;84.30;;;;;;5060444;28;19932;-59
2024/03/13 09:52:54;;;;;;;;;;;10.50;84.30;;;;;;5061214;28;19929;-62
2024/03/13 09:55:28;;;;;;;;;;;10.50;84.20;;;;;;5060180;28;20383;-64
2024/03/13 09:58:01;;;;;;;;;;;10.60;84.40;;;;;;5060063;28;19950;-63
2024/03/13 10:00:34;;;;;;;;;;;10.60;84.30;;;;;;5058094;28;19967;-62
2024/03/13 10:03:07;;;;;;;;;;;10.60;84.30;;;;;;5060562;28;19967;-64
2024/03/13 10:05:41;;;;;;;;;;;10.70;84.40;;;;;;5059616;28;19928;-63
2024/03/13 10:08:15;;;;;;;;;;;10.70;84.40;;;;;;5059880;28;19960;-62
2024/03/13 10:10:48;;;;;;;;;;;10.80;84.30;;;;;;5060775;28;20023;-63
2024/03/13 10:13:22;;;;;;;;;;;10.90;84.20;;;;;;5044649;28;19936;-63
2024/03/13 10:15:57;;;;;;;;;;;10.90;84.10;;;;;;5057431;28;20146;-62
2024/03/13 10:18:31;;;;;;;;;;;11.00;84.00;;;;;;5059784;28;19933;-63
2024/03/13 10:20:57;;;;;;;;;;;11.10;84.00;;;;;;5060451;28;19924;-62
2024/03/13 10:23:31;;;;;;;;;;;11.10;83.70;;;;;;5060827;28;19931;-62
2024/03/13 10:26:04;;;;;;;;;;;11.20;83.50;;;;;;5060455;28;19940;-62
2024/03/13 10:28:38;;;;;;;;;;;11.20;83.40;;;;;;5060072;28;19929;-63
2024/03/13 10:31:14;;;;;;;;;;;11.30;83.20;;;;;;5059514;28;19928;-62
2024/03/13 10:33:49;;;;;;;;;;;11.40;83.00;;;;;;5061998;28;19929;-63
2024/03/13 10:36:22;;;;;;;;;;;11.40;82.90;;;;;;5059409;28;19924;-63
2024/03/13 10:38:57;;;;;;;;;;;11.50;82.90;;;;;;5059918;28;20011;-62
2024/03/13 10:41:30;;;;;;;;;;;11.60;82.90;;;;;;5060487;28;19929;-63
2024/03/13 10:44:04;;;;;;;;;;;11.70;82.50;;;;;;5043565;28;19928;-63
2024/03/13 10:46:38;;;;;;;;;;;11.70;82.60;;;;;;5057823;28;19928;-62
2024/03/13 10:49:13;;;;;;;;;;;11.80;82.10;;;;;;5060161;28;19955;-63
2024/03/13 10:51:47;;;;;;;;;;;11.70;81.90;;;;;;5044926;28;20295;-64
2024/03/13 10:54:21;;;;;;;;;;;11.80;81.90;;;;;;5055403;28;20373;-63
2024/03/13 10:56:54;;;;;;;;;;;11.80;82.10;;;;;;5060601;28;19924;-63
2024/03/13 10:59:29;;;;;;;;;;;11.80;82.10;;;;;;5058451;28;19924;-63
2024/03/13 11:02:03;;;;;;;;;;;11.80;82.00;;;;;;5059915;28;19928;-59
2024/03/13 11:04:38;;;;;;;;;;;11.80;81.80;;;;;;5058123;28;19928;-59
2024/03/13 11:07:13;;;;;;;;;;;11.90;81.80;;;;;;5059532;28;19978;-58
2024/03/13 11:09:47;;;;;;;;;;;11.90;81.70;;;;;;5059471;28;20056;-58
2024/03/13 11:12:21;;;;;;;;;;;12.00;81.60;;;;;;5058971;28;19932;-61
2024/03/13 11:14:55;;;;;;;;;;;12.00;81.60;;;;;;5059623;28;19925;-61
2024/03/13 11:17:29;;;;;;;;;;;12.10;81.50;;;;;;5059251;28;19936;-60
2024/03/13 11:20:05;;;;;;;;;;;12.20;81.30;;;;;;5058635;28;19929;-61
2024/03/13 11:22:39;;;;;;;;;;;12.20;81.20;;;;;;5054975;28;19951;-58
2024/03/13 11:25:16;;;;;;;;;;;12.20;81.10;;;;;;5057564;28;19924;-59
2024/03/13 11:27:51;;;;;;;;;;;12.20;81.10;;;;;;5058195;28;19978;-59
2024/03/13 11:30:24;;;;;;;;;;;12.10;81.20;;;;;;5058763;28;20314;-57
2024/03/13 11:32:57;;;;;;;;;;;12.20;81.20;;;;;;5052574;28;20349;-59
2024/03/13 11:35:30;;;;;;;;;;;12.20;81.10;;;;;;5058733;28;20298;-59
2024/03/13 11:38:03;;;;;;;;;;;12.20;81.20;;;;;;5054612;28;19931;-61
2024/03/13 11:40:36;;;;;;;;;;;12.10;81.20;;;;;;5060318;28;20022;-58
2024/03/13 11:43:10;;;;;;;;;;;12.10;81.30;;;;;;5065921;28;19929;-60
2024/03/13 11:45:43;;;;;;;;;;;12.10;81.40;;;;;;5060635;28;19976;-58
2024/03/13 11:48:17;;;;;;;;;;;12.10;81.30;;;;;;5058574;28;19928;-59
2024/03/13 11:51:08;;;;;;;;;;;12.10;81.30;;;;;;5055368;28;19936;-58
2024/03/13 11:53:42;;;;;;;;;;;12.10;81.20;;;;;;5056767;28;20014;-57
2024/03/13 11:56:20;;;;;;;;;;;12.20;81.10;;;;;;5058990;28;19994;-59
2024/03/13 11:58:53;;;;;;;;;;;12.20;81.10;;;;;;5057052;28;19935;-57
2024/03/13 12:01:26;;;;;;;;;;;12.20;81.20;;;;;;5058119;28;19994;-57
2024/03/13 12:04:03;;;;;;;;;;;12.20;81.10;;;;;;5057229;28;19933;-59
2024/03/13 12:06:38;;;;;;;;;;;12.20;81.10;;;;;;5058321;28;19924;-57
2024/03/13 12:09:44;;;;;;;;;;;12.20;81.10;;;;;;5057616;28;19928;-59
2024/03/13 12:12:18;;;;;;;;;;;12.20;81.10;;;;;;5063277;28;19978;-59
2024/03/13 12:14:52;;;;;;;;;;;12.20;81.10;;;;;;5057720;28;19925;-59
2024/03/13 12:17:25;;;;;;;;;;;12.20;81.20;;;;;;5057759;28;20023;-60
2024/03/13 12:19:52;;;;;;;;;;;12.20;81.20;;;;;;5058051;28;19933;-59
2024/03/13 12:22:25;;;;;;;;;;;12.10;81.50;;;;;;5057620;28;19970;-59
2024/03/13 12:24:58;;;;;;;;;;;12.10;81.30;;;;;;5057288;28;19970;-60
2024/03/13 12:27:31;;;;;;;;;;;12.10;81.50;;;;;;5057694;28;20012;-59
2024/03/13 12:30:05;;;;;;;;;;;12.10;81.60;;;;;;5065640;28;19925;-61
2024/03/13 12:32:39;;;;;;;;;;;12.10;81.70;;;;;;5057085;28;19928;-60
2024/03/13 12:35:12;;;;;;;;;;;12.10;81.90;;;;;;5059127;28;19932;-59
2024/03/13 12:37:48;;;;;;;;;;;12.10;82.10;;;;;;5060310;28;19955;-60
2024/03/13 12:40:21;;;;;;;;;;;12.10;82.40;;;;;;5062348;28;20454;-60
2024/03/13 12:42:54;;;;;;;;;;;12.00;82.80;;;;;;5062514;28;19998;-59
2024/03/13 12:45:29;;;;;;;;;;;12.00;83.10;;;;;;5053938;28;20023;-62
2024/03/13 12:48:03;;;;;;;;;;;12.00;83.40;;;;;;5061431;28;19925;-60
2024/03/13 12:50:36;;;;;;;;;;;12.00;83.60;;;;;;5061824;28;19928;-60
2024/03/13 12:53:09;;;;;;;;;;;12.10;83.90;;;;;;5053226;28;20278;-62
2024/03/13 12:55:42;;;;;;;;;;;12.00;84.20;;;;;;5060580;28;20033;-60
2024/03/13 12:58:16;;;;;;;;;;;12.00;84.40;;;;;;5062293;28;20030;-59
2024/03/13 13:00:50;;;;;;;;;;;11.90;84.50;;;;;;5061476;28;20016;-59
2024/03/13 13:03:23;;;;;;;;;;;11.90;84.50;;;;;;5062142;28;19929;-60
2024/03/13 13:05:56;;;;;;;;;;;11.90;84.60;;;;;;5061605;28;19947;-61
2024/03/13 13:08:29;;;;;;;;;;;11.90;84.80;;;;;;5061208;28;19924;-60
2024/03/13 13:14:37;;;;;;;;;;;12.00;84.70;;;;;;5062802;28;20279;-59
2024/03/13 13:17:12;;;;;;;;;;;12.20;84.60;;;;;;5060864;28;19932;-60
2024/03/13 13:19:46;;;;;;;;;;;12.20;84.50;;;;;;5052665;28;19954;-60
2024/03/13 13:22:20;;;;;;;;;;;12.40;84.40;;;;;;5062115;28;19935;-60
2024/03/13 13:24:53;;;;;;;;;;;12.40;84.40;;;;;;5061422;28;19924;-61
2024/03/13 13:27:26;;;;;;;;;;;12.50;84.20;;;;;;5062064;28;19947;-59
2024/03/13 13:29:59;;;;;;;;;;;12.60;84.10;;;;;;5061956;28;19931;-59
2024/03/13 13:32:32;;;;;;;;;;;12.60;84.20;;;;;;5062292;28;19985;-61
2024/03/13 13:35:11;;;;;;;;;;;12.60;84.10;;;;;;5060882;28;19952;-60
2024/03/13 13:37:45;;;;;;;;;;;12.50;84.20;;;;;;5061575;28;19925;-61
2024/03/13 13:40:19;;;;;;;;;;;12.50;84.30;;;;;;5060950;28;19956;-60
2024/03/13 13:42:54;;;;;;;;;;;12.40;84.40;;;;;;5061717;28;19931;-60
2024/03/13 13:45:27;;;;;;;;;;;12.50;84.30;;;;;;5060819;28;19925;-61
2024/03/13 13:48:00;;;;;;;;;;;12.50;84.40;;;;;;5060944;28;19925;-60
2024/03/13 13:50:33;;;;;;;;;;;12.40;84.40;;;;;;5060604;28;19971;-61
2024/03/13 13:53:07;;;;;;;;;;;12.40;84.40;;;;;;5060095;28;19959;-60
2024/03/13 13:55:40;;;;;;;;;;;12.40;84.40;;;;;;5060253;28;19959;-60
2024/03/13 13:58:14;;;;;;;;;;;12.40;84.40;;;;;;5060306;28;19974;-58
2024/03/13 14:00:48;;;;;;;;;;;12.40;84.40;;;;;;5060940;28;19924;-60
2024/03/13 14:03:23;;;;;;;;;;;12.40;84.40;;;;;;5060707;28;19931;-61
2024/03/13 14:05:58;;;;;;;;;;;12.40;84.40;;;;;;5060180;28;19959;-60
2024/03/13 14:08:31;;;;;;;;;;;12.30;84.50;;;;;;5052531;28;20421;-60
2024/03/13 14:11:06;;;;;;;;;;;12.40;84.50;;;;;;5059029;28;20022;-59
2024/03/13 14:13:42;;;;;;;;;;;12.40;84.50;;;;;;5061282;28;20028;-60
2024/03/13 14:16:15;;;;;;;;;;;12.40;84.50;;;;;;5060478;28;19995;-59
2024/03/13 14:18:48;;;;;;;;;;;12.30;84.50;;;;;;5059675;28;20021;-60
2024/03/13 14:21:22;;;;;;;;;;;12.40;84.60;;;;;;5061172;28;19924;-61
2024/03/13 14:23:56;;;;;;;;;;;12.40;84.70;;;;;;5061349;28;19971;-60
2024/03/13 14:26:29;;;;;;;;;;;12.40;84.70;;;;;;5060043;28;19979;-60
2024/03/13 14:29:05;;;;;;;;;;;12.40;84.70;;;;;;5061540;28;19924;-60
2024/03/13 14:31:39;;;;;;;;;;;12.50;84.60;;;;;;5060083;28;19931;-72
2024/03/13 14:34:12;;;;;;;;;;;12.40;84.70;;;;;;5060543;28;19937;-72
2024/03/13 14:36:46;;;;;;;;;;;12.50;84.70;;;;;;5059891;28;19929;-71
2024/03/13 14:39:23;;;;;;;;;;;12.40;84.70;;;;;;5060303;28;19979;-72
2024/03/13 14:41:56;;;;;;;;;;;12.40;85.00;;;;;;5059455;28;20334;-71
2024/03/13 14:44:29;;;;;;;;;;;12.40;85.20;;;;;;5060237;28;19932;-72
2024/03/13 14:47:02;;;;;;;;;;;12.40;85.40;;;;;;5058960;28;19928;-71
2024/03/13 14:49:35;;;;;;;;;;;12.30;85.60;;;;;;5059991;28;19972;-70
2024/03/13 14:52:09;;;;;;;;;;;12.30;85.70;;;;;;5059300;28;19933;-73
2024/03/13 14:54:51;;;;;;;;;;;12.30;85.70;;;;;;5064825;28;19924;-72
2024/03/13 14:57:27;;;;;;;;;;;12.40;85.90;;;;;;5079586;28;19930;-71
2024/03/13 15:00:01;;;;;;;;;;;12.40;85.80;;;;;;5059415;28;19929;-70
2024/03/13 15:02:34;;;;;;;;;;;12.40;85.80;;;;;;5058987;28;20431;-72
2024/03/13 15:05:07;;;;;;;;;;;12.40;85.70;;;;;;5058202;28;19929;-74
2024/03/13 15:07:41;;;;;;;;;;;12.40;85.80;;;;;;5059467;28;19993;-71
2024/03/13 15:10:15;;;;;;;;;;;12.40;85.70;;;;;;5058589;28;19950;-72
2024/03/13 15:12:49;;;;;;;;;;;12.40;85.70;;;;;;5059296;28;19931;-73
2024/03/13 15:15:22;;;;;;;;;;;12.40;85.60;;;;;;5059864;28;19925;-71
2024/03/13 15:17:56;;;;;;;;;;;12.40;85.70;;;;;;5059903;28;19925;-73
2024/03/13 15:20:31;;;;;;;;;;;12.40;85.60;;;;;;5059209;28;19931;-71
2024/03/13 15:23:04;;;;;;;;;;;12.40;85.70;;;;;;5059681;28;19932;-72